Terminal Aerodrome Forecast
Issued by NWS

Home | Current Version | Previous Version | Text Only | Print | Product List | Glossary On
Versions: 1 2 3 4 5 6 7 8 9 10 11 12 13 14 15
000
FTUS45 KRIW 291700
TAFBPI
TAF
KBPI 291720Z 2918/3018 VRB05KT P6SM VCSH SCT060 BKN090
     FM291900 VRB10G15KT P6SM VCTS FEW030 OVC070CB
     FM300200 VRB10G15KT P6SM -SHRA OVC060
     FM300400 VRB06KT P6SM VCSH SCT060 BKN100=

USA.gov is the U.S. government's official web portal to all federal, state and local government web resources and services.